createdAt,value
2023-01-17T00:02:16.322Z,53918.66
2023-01-17T00:05:01.568Z,53908.31
2023-01-17T00:07:46.611Z,53910.38
2023-01-17T00:10:14.458Z,53910.38
2023-01-17T00:12:42.612Z,53929.00
2023-01-17T00:15:09.236Z,53883.50
2023-01-17T00:17:35.567Z,53895.91
2023-01-17T00:20:20.670Z,53935.19
2023-01-17T00:23:05.565Z,53914.53
2023-01-17T00:25:55.256Z,53895.91
2023-01-17T00:28:21.583Z,53935.19
2023-01-17T00:30:47.925Z,53908.31
2023-01-17T00:33:14.203Z,53910.38
2023-01-17T00:35:40.461Z,53900.03
2023-01-17T00:38:14.374Z,53931.06
2023-01-17T00:40:41.455Z,53906.25
2023-01-17T00:43:26.872Z,53877.31
2023-01-17T00:46:11.845Z,53922.78
2023-01-17T00:48:56.921Z,53900.03
2023-01-17T00:51:42.465Z,53906.25
2023-01-17T00:54:27.233Z,53908.31
2023-01-17T00:57:14.098Z,53902.13
2023-01-17T00:59:59.252Z,53906.25
2023-01-17T01:02:44.210Z,53908.31
2023-01-17T01:05:29.203Z,53922.78
2023-01-17T01:08:14.161Z,53893.84
2023-01-17T01:10:59.156Z,53918.66
2023-01-17T01:13:44.767Z,53897.97
2023-01-17T01:16:29.791Z,53922.78
2023-01-17T01:19:14.780Z,53906.25
2023-01-17T01:21:59.633Z,53891.78
2023-01-17T01:24:44.603Z,53902.13
2023-01-17T01:27:29.413Z,53910.38
2023-01-17T01:30:14.413Z,53910.38
2023-01-17T01:32:59.182Z,53902.13
2023-01-17T01:35:25.515Z,53908.31
2023-01-17T01:37:51.937Z,53902.13
2023-01-17T01:40:18.551Z,53912.44
2023-01-17T01:42:48.715Z,53926.94
2023-01-17T01:45:22.702Z,53895.91
2023-01-17T01:47:49.490Z,53914.53
2023-01-17T01:50:15.793Z,53904.19
2023-01-17T01:52:44.873Z,53908.31
2023-01-17T01:55:31.509Z,53906.25
2023-01-17T01:57:59.297Z,53883.50
2023-01-17T02:00:29.940Z,53877.31
2023-01-17T02:02:57.311Z,53877.31
2023-01-17T02:05:24.014Z,53879.38
2023-01-17T02:07:55.152Z,53893.84
2023-01-17T02:10:21.493Z,53877.31
2023-01-17T02:12:47.835Z,53897.97
2023-01-17T02:15:14.177Z,53887.63
2023-01-17T02:17:47.797Z,53873.16
2023-01-17T02:20:20.232Z,53873.16
2023-01-17T02:22:46.472Z,53885.56
2023-01-17T02:25:38.276Z,53879.38
2023-01-17T02:28:19.884Z,53862.81
2023-01-17T02:30:46.443Z,53883.50
2023-01-17T02:33:21.841Z,53875.22
2023-01-17T02:35:48.097Z,53887.63
2023-01-17T02:38:16.394Z,53897.97
2023-01-17T02:40:47.833Z,53922.78
2023-01-17T02:43:15.531Z,53887.63
2023-01-17T02:45:41.885Z,53893.84
2023-01-17T02:48:08.650Z,53912.44
2023-01-17T02:51:02.933Z,53920.72
2023-01-17T02:53:29.207Z,53885.56
2023-01-17T02:55:58.596Z,53864.91
2023-01-17T02:58:24.960Z,53893.84
2023-01-17T03:01:09.806Z,53916.59
2023-01-17T03:03:41.890Z,53877.31
2023-01-17T03:06:11.634Z,53883.50
2023-01-17T03:08:44.635Z,53904.19
2023-01-17T03:11:11.317Z,53897.97
2023-01-17T03:13:37.778Z,53881.44
2023-01-17T03:16:05.061Z,53918.66
2023-01-17T03:18:31.384Z,53910.38
2023-01-17T03:20:57.737Z,53879.38
2023-01-17T03:23:24.057Z,53871.09
2023-01-17T03:25:50.354Z,53897.97
2023-01-17T03:28:16.708Z,53918.66
2023-01-17T03:30:43.089Z,53893.84
2023-01-17T03:33:09.388Z,53897.97
2023-01-17T03:35:36.034Z,53893.84
2023-01-17T03:38:02.354Z,53914.53
2023-01-17T03:40:28.667Z,53908.31
2023-01-17T03:42:54.964Z,53887.63
2023-01-17T03:45:21.285Z,53879.38
2023-01-17T03:47:47.591Z,53904.19
2023-01-17T03:50:13.952Z,53891.78
2023-01-17T03:52:40.275Z,53885.56
2023-01-17T03:55:06.843Z,53817.34
2023-01-17T03:57:33.177Z,53817.34
2023-01-17T03:59:59.516Z,53809.06
2023-01-17T04:02:25.871Z,53829.75
2023-01-17T04:04:52.196Z,53821.47
2023-01-17T04:07:18.537Z,53802.88
2023-01-17T04:09:44.891Z,53802.88
2023-01-17T04:12:11.603Z,53831.81
2023-01-17T04:14:37.996Z,53821.47
2023-01-17T04:17:04.366Z,53796.66
2023-01-17T04:19:31.114Z,53786.31
2023-01-17T04:21:57.432Z,53827.69
2023-01-17T04:24:23.755Z,53802.88
2023-01-17T04:26:50.113Z,53831.81
2023-01-17T04:29:16.561Z,53819.41
2023-01-17T04:31:42.901Z,53838.00
2023-01-17T04:34:09.215Z,53829.75
2023-01-17T04:36:35.686Z,53807.00
2023-01-17T04:39:01.980Z,53821.47
2023-01-17T04:41:28.243Z,53833.88
2023-01-17T04:43:54.657Z,53819.41
2023-01-17T04:46:21.027Z,53815.28
2023-01-17T04:48:47.359Z,53807.00
2023-01-17T04:51:13.818Z,53817.34
2023-01-17T04:53:40.174Z,53811.13
2023-01-17T04:56:06.610Z,53815.28
2023-01-17T04:58:33.423Z,53811.13
2023-01-17T05:01:06.938Z,53802.88
2023-01-17T05:03:33.627Z,53817.34
2023-01-17T05:06:00.431Z,53811.13
2023-01-17T05:08:26.773Z,53815.28
2023-01-17T05:10:53.065Z,53811.13
2023-01-17T05:13:19.413Z,53815.28
2023-01-17T05:15:45.973Z,53798.72
2023-01-17T05:18:12.902Z,53786.31
2023-01-17T05:20:39.197Z,53807.00
2023-01-17T05:23:05.494Z,53794.59
2023-01-17T05:25:32.239Z,53802.88
2023-01-17T05:28:01.532Z,53784.25
2023-01-17T05:30:30.833Z,53813.19
2023-01-17T05:32:57.483Z,53823.53
2023-01-17T05:35:25.353Z,53792.53
2023-01-17T05:37:51.784Z,53823.53
2023-01-17T05:40:18.626Z,53844.22
2023-01-17T05:42:45.920Z,53798.72
2023-01-17T05:45:16.557Z,53798.72
2023-01-17T05:47:46.875Z,53817.34
2023-01-17T05:50:13.787Z,53831.81
2023-01-17T05:52:40.451Z,53833.88
2023-01-17T05:55:07.611Z,53784.25
2023-01-17T05:57:34.190Z,53817.34
2023-01-17T06:00:00.500Z,53782.19
2023-01-17T06:02:26.882Z,53790.47
2023-01-17T06:04:53.274Z,53786.31
2023-01-17T06:07:19.557Z,53794.59
2023-01-17T06:09:45.848Z,53786.31
2023-01-17T06:12:12.122Z,53798.72
2023-01-17T06:14:38.397Z,53804.94
2023-01-17T06:17:05.450Z,53821.47
2023-01-17T06:19:31.748Z,53829.75
2023-01-17T06:21:58.036Z,53802.88
2023-01-17T06:24:24.427Z,53800.81
2023-01-17T06:26:50.796Z,53794.59
2023-01-17T06:29:17.105Z,53813.19
2023-01-17T06:31:43.412Z,53776.00
2023-01-17T06:34:09.755Z,53744.97
2023-01-17T06:36:36.093Z,53771.84
2023-01-17T06:39:02.486Z,53782.19
2023-01-17T06:41:28.810Z,53788.41
2023-01-17T06:43:55.491Z,53794.59
2023-01-17T06:46:22.108Z,53786.31
2023-01-17T06:48:48.719Z,53792.53
2023-01-17T06:51:15.070Z,53790.47
2023-01-17T06:53:41.608Z,53794.59
2023-01-17T06:56:08.364Z,53790.47
2023-01-17T06:58:34.910Z,53809.06
2023-01-17T07:01:11.250Z,53778.06
2023-01-17T07:03:38.096Z,53792.53
2023-01-17T07:06:04.724Z,53796.66
2023-01-17T07:08:31.443Z,53802.88
2023-01-17T07:11:01.906Z,53825.59
2023-01-17T07:13:28.480Z,53800.81
2023-01-17T07:15:54.900Z,53782.19
2023-01-17T07:18:23.261Z,53784.25
2023-01-17T07:20:50.013Z,53790.47
2023-01-17T07:23:16.667Z,53784.25
2023-01-17T07:25:42.960Z,53800.81
2023-01-17T07:28:09.532Z,53807.00
2023-01-17T07:30:36.622Z,53792.53
2023-01-17T07:33:03.073Z,53813.19
2023-01-17T07:35:29.439Z,53782.19
2023-01-17T07:37:55.774Z,53809.06
2023-01-17T07:40:22.573Z,53809.06
2023-01-17T07:42:48.888Z,53813.19
2023-01-17T07:45:15.784Z,53776.00
2023-01-17T07:47:42.092Z,53794.59
2023-01-17T07:50:08.834Z,53796.66
2023-01-17T07:52:35.222Z,53813.19
2023-01-17T07:55:01.540Z,53800.81
2023-01-17T07:57:28.614Z,53771.84
2023-01-17T07:59:55.081Z,53790.47
2023-01-17T08:02:22.061Z,53784.25
2023-01-17T08:04:48.357Z,53800.81
2023-01-17T08:07:14.809Z,53798.72
2023-01-17T08:09:41.356Z,53776.00
2023-01-17T08:12:07.662Z,53798.72
2023-01-17T08:14:33.973Z,53782.19
2023-01-17T08:17:06.816Z,53807.00
2023-01-17T08:19:33.177Z,53792.53
2023-01-17T08:21:59.682Z,53833.88
2023-01-17T08:24:26.166Z,53778.06
2023-01-17T08:26:54.935Z,53817.34
2023-01-17T08:29:21.310Z,53807.00
2023-01-17T08:31:47.638Z,53794.59
2023-01-17T08:34:16.931Z,53811.13
2023-01-17T08:36:44.049Z,53796.66
2023-01-17T08:39:12.859Z,53794.59
2023-01-17T08:41:39.174Z,53778.06
2023-01-17T08:44:05.509Z,53796.66
2023-01-17T08:46:32.877Z,53807.00
2023-01-17T08:49:00.157Z,53796.66
2023-01-17T08:51:26.726Z,53815.28
2023-01-17T08:53:53.362Z,53802.88
2023-01-17T08:56:19.687Z,53786.31
2023-01-17T08:58:46.070Z,53800.81
2023-01-17T09:01:12.515Z,53802.88
2023-01-17T09:03:40.842Z,53796.66
2023-01-17T09:06:08.653Z,53813.19
2023-01-17T09:08:38.445Z,53825.59
2023-01-17T09:11:08.713Z,53794.59
2023-01-17T09:13:35.386Z,53798.72
2023-01-17T09:16:02.156Z,53809.06
2023-01-17T09:18:29.046Z,53813.19
2023-01-17T09:20:55.768Z,53798.72
2023-01-17T09:23:22.607Z,53802.88
2023-01-17T09:25:55.368Z,53802.88
2023-01-17T09:28:21.745Z,53813.19
2023-01-17T09:30:48.203Z,53804.94
2023-01-17T09:33:14.908Z,53817.34
2023-01-17T09:35:41.231Z,53807.00
2023-01-17T09:38:07.715Z,53821.47
2023-01-17T09:40:34.006Z,53802.88
2023-01-17T09:43:02.479Z,53809.06
2023-01-17T09:45:30.141Z,53809.06
2023-01-17T09:47:56.455Z,53813.19
2023-01-17T09:50:33.704Z,53823.53
2023-01-17T09:53:07.191Z,53798.72
2023-01-17T09:55:52.407Z,53798.72
2023-01-17T09:58:37.508Z,53815.28
2023-01-17T10:01:22.867Z,53835.94
2023-01-17T10:03:49.331Z,53827.69
2023-01-17T10:06:24.795Z,53819.41
2023-01-17T10:08:58.002Z,53838.00
2023-01-17T10:11:34.032Z,53833.88
2023-01-17T10:14:00.270Z,53846.28
2023-01-17T10:16:41.501Z,53844.22
2023-01-17T10:19:08.035Z,53844.22
2023-01-17T10:21:43.213Z,53846.28
2023-01-17T10:24:16.619Z,53848.34
2023-01-17T10:26:46.478Z,53819.41
2023-01-17T10:29:14.161Z,53821.47
2023-01-17T10:31:41.552Z,53819.41
2023-01-17T10:34:15.456Z,53819.41
2023-01-17T10:36:43.068Z,53831.81
2023-01-17T10:39:22.830Z,53846.28
2023-01-17T10:41:55.180Z,53819.41
2023-01-17T10:44:21.469Z,53829.75
2023-01-17T10:46:48.938Z,53827.69
2023-01-17T10:49:16.707Z,53827.69
2023-01-17T10:51:52.963Z,53840.09
2023-01-17T10:54:23.200Z,53852.50
2023-01-17T10:56:49.524Z,53829.75
2023-01-17T10:59:17.181Z,53817.34
2023-01-17T11:01:43.557Z,53848.34
2023-01-17T11:04:21.089Z,53844.22
2023-01-17T11:06:57.926Z,53825.59
2023-01-17T11:09:28.043Z,53838.00
2023-01-17T11:11:54.370Z,53838.00
2023-01-17T11:14:21.114Z,53854.56
2023-01-17T11:16:59.582Z,53860.75
2023-01-17T11:19:28.774Z,53838.00
2023-01-17T11:21:57.631Z,53881.44
2023-01-17T11:24:45.809Z,53856.63
2023-01-17T11:27:30.355Z,53856.63
2023-01-17T11:30:05.025Z,53866.97
2023-01-17T11:32:32.601Z,53877.31
2023-01-17T11:35:14.226Z,53840.09
2023-01-17T11:37:48.762Z,53848.34
2023-01-17T11:40:15.104Z,53858.69
2023-01-17T11:42:41.419Z,53848.34
2023-01-17T11:45:23.053Z,53858.69
2023-01-17T11:47:49.407Z,53844.22
2023-01-17T11:50:23.302Z,53897.97
2023-01-17T11:52:49.617Z,53827.69
2023-01-17T11:55:15.930Z,53873.16
2023-01-17T11:57:42.245Z,53891.78
2023-01-17T12:00:08.564Z,53844.22
2023-01-17T12:02:53.727Z,53844.22
2023-01-17T12:05:33.131Z,53848.34
2023-01-17T12:08:02.482Z,53844.22
2023-01-17T12:10:30.927Z,53885.56
2023-01-17T12:13:22.392Z,53885.56
2023-01-17T12:15:51.964Z,53871.09
2023-01-17T12:18:27.620Z,53852.50
2023-01-17T12:21:09.654Z,53875.22
2023-01-17T12:23:47.899Z,53866.97
2023-01-17T12:26:19.664Z,53883.50
2023-01-17T12:28:57.978Z,53879.38
2023-01-17T12:31:36.549Z,53854.56
2023-01-17T12:34:22.252Z,53873.16
2023-01-17T12:36:50.348Z,53906.25
2023-01-17T12:39:16.840Z,53858.69
2023-01-17T12:41:46.218Z,53854.56
2023-01-17T12:44:13.552Z,53879.38
2023-01-17T12:46:43.090Z,53885.56
2023-01-17T12:49:15.665Z,53902.13
2023-01-17T12:51:42.869Z,53852.50
2023-01-17T12:57:15.191Z,53893.84
2023-01-17T13:15:43.018Z,53875.22
2023-01-17T13:18:12.169Z,53893.84
2023-01-17T13:20:38.436Z,53897.97
2023-01-17T13:23:16.974Z,53860.75
2023-01-17T13:25:43.233Z,53891.78
2023-01-17T13:28:18.849Z,53875.22
2023-01-17T13:31:08.421Z,53881.44
2023-01-17T13:33:43.804Z,53871.09
2023-01-17T13:36:29.881Z,53873.16
2023-01-17T13:39:07.797Z,53877.31
2023-01-17T13:41:34.119Z,53866.97
2023-01-17T13:44:19.271Z,53879.38
2023-01-17T13:46:57.762Z,53893.84
2023-01-17T13:49:31.375Z,53881.44
2023-01-17T13:52:12.142Z,53844.22
2023-01-17T13:54:48.516Z,53838.00
2023-01-17T13:57:29.836Z,53871.09
2023-01-17T13:59:57.061Z,53862.81
2023-01-17T14:02:32.491Z,53862.81
2023-01-17T14:05:08.131Z,53854.56
2023-01-17T14:07:35.506Z,53860.75
2023-01-17T14:10:02.016Z,53900.03
2023-01-17T14:12:31.365Z,53877.31
2023-01-17T14:15:00.441Z,53885.56
2023-01-17T14:17:36.859Z,53877.31
2023-01-17T14:20:06.288Z,53885.56
2023-01-17T14:22:36.112Z,53891.78
2023-01-17T14:25:17.583Z,53875.22
2023-01-17T14:27:54.094Z,53871.09
2023-01-17T14:30:22.039Z,53864.91
2023-01-17T14:33:05.089Z,53840.09
2023-01-17T14:35:38.771Z,53866.97
2023-01-17T14:38:15.505Z,53885.56
2023-01-17T14:40:43.186Z,53871.09
2023-01-17T14:43:13.120Z,53881.44
2023-01-17T14:45:39.408Z,53850.41
2023-01-17T14:48:07.113Z,53858.69
2023-01-17T14:50:37.609Z,53827.69
2023-01-17T14:53:11.079Z,53815.28
2023-01-17T14:55:37.770Z,53840.09
2023-01-17T14:58:04.113Z,53821.47
2023-01-17T15:00:30.695Z,53831.81
2023-01-17T15:02:57.710Z,53854.56
2023-01-17T15:05:31.868Z,53848.34
2023-01-17T15:07:58.203Z,53823.53
2023-01-17T15:10:31.464Z,53831.81
2023-01-17T15:12:58.486Z,53852.50
2023-01-17T15:15:42.153Z,53866.97
2023-01-17T15:18:09.367Z,53840.09
2023-01-17T15:20:36.099Z,53819.41
2023-01-17T15:23:02.814Z,53842.16
2023-01-17T15:25:29.118Z,53827.69
2023-01-17T15:27:55.435Z,53844.22
2023-01-17T15:30:24.913Z,53838.00
2023-01-17T15:32:51.404Z,53860.75
2023-01-17T15:35:17.979Z,53804.94
2023-01-17T15:37:44.381Z,53827.69
2023-01-17T15:40:18.697Z,53823.53
2023-01-17T15:42:56.528Z,53802.88
2023-01-17T15:45:24.034Z,53798.72
2023-01-17T15:47:50.316Z,53813.19
2023-01-17T15:50:19.618Z,53794.59
2023-01-17T15:52:53.233Z,53813.19
2023-01-17T15:55:23.656Z,53823.53
2023-01-17T15:57:49.972Z,53821.47
2023-01-17T16:00:20.606Z,53771.84
2023-01-17T16:02:49.123Z,53776.00
2023-01-17T16:05:34.237Z,53790.47
2023-01-17T16:08:04.193Z,53807.00
2023-01-17T16:10:31.803Z,53817.34
2023-01-17T16:12:58.678Z,53782.19
2023-01-17T16:15:25.691Z,53782.19
2023-01-17T16:17:53.211Z,53782.19
2023-01-17T16:20:27.025Z,53765.66
2023-01-17T16:22:53.624Z,53767.72
2023-01-17T16:25:20.961Z,53782.19
2023-01-17T16:27:47.416Z,53757.38
2023-01-17T16:30:17.703Z,53753.25
2023-01-17T16:32:47.807Z,53788.41
2023-01-17T16:35:18.938Z,53749.09
2023-01-17T16:37:47.923Z,53744.97
2023-01-17T16:40:15.122Z,53757.38
2023-01-17T16:42:42.363Z,53765.66
2023-01-17T16:45:09.443Z,53742.91
2023-01-17T16:47:35.776Z,53755.31
2023-01-17T16:50:02.271Z,53751.19
2023-01-17T16:52:28.574Z,53749.09
2023-01-17T16:54:55.452Z,53742.91
2023-01-17T16:57:22.898Z,53722.22
2023-01-17T16:59:50.838Z,53718.09
2023-01-17T17:02:18.517Z,53736.69
2023-01-17T17:04:45.041Z,53716.03
2023-01-17T17:07:11.331Z,53695.34
2023-01-17T17:09:37.811Z,53711.91
2023-01-17T17:12:05.052Z,53695.34
2023-01-17T17:14:31.443Z,53730.50
2023-01-17T17:16:57.836Z,53693.28
2023-01-17T17:19:24.243Z,53695.34
2023-01-17T17:21:50.539Z,53680.88
2023-01-17T17:24:19.864Z,53713.97
2023-01-17T17:26:46.227Z,53701.56
2023-01-17T17:29:13.011Z,53687.09
2023-01-17T17:31:39.826Z,53726.38
2023-01-17T17:34:09.191Z,53718.09
2023-01-17T17:36:35.595Z,53701.56
2023-01-17T17:39:03.449Z,53699.50
2023-01-17T17:41:30.781Z,53703.63
2023-01-17T17:43:57.272Z,53724.28
2023-01-17T17:46:24.919Z,53703.63
2023-01-17T17:48:51.278Z,53695.34
2023-01-17T17:51:26.748Z,53687.09
2023-01-17T17:53:54.500Z,53689.16
2023-01-17T17:56:21.448Z,53699.50
2023-01-17T17:58:47.978Z,53695.34
2023-01-17T18:01:14.341Z,53687.09
2023-01-17T18:03:40.768Z,53693.28
2023-01-17T18:06:07.996Z,53705.69
2023-01-17T18:08:34.914Z,53734.63
2023-01-17T18:11:02.115Z,53682.94
2023-01-17T18:13:28.739Z,53674.69
2023-01-17T18:16:05.421Z,53703.63
2023-01-17T18:18:32.393Z,53689.16
2023-01-17T18:21:06.108Z,53670.53
2023-01-17T18:23:32.388Z,53732.56
2023-01-17T18:25:58.670Z,53678.81
2023-01-17T18:28:24.992Z,53685.00
2023-01-17T18:30:51.278Z,53687.09
2023-01-17T18:33:17.569Z,53664.34
2023-01-17T18:35:52.539Z,53664.34
2023-01-17T18:38:18.805Z,53662.28
2023-01-17T18:40:45.083Z,53662.28
2023-01-17T18:43:11.430Z,53691.22
2023-01-17T18:45:37.727Z,53668.47
2023-01-17T18:48:04.192Z,53678.81
2023-01-17T18:50:30.494Z,53662.28
2023-01-17T18:52:56.944Z,53662.28
2023-01-17T18:55:23.348Z,53682.94
2023-01-17T18:57:49.670Z,53662.28
2023-01-17T19:00:16.097Z,53654.00
2023-01-17T19:02:42.392Z,53678.81
2023-01-17T19:05:11.769Z,53637.47
2023-01-17T19:07:38.108Z,53662.28
2023-01-17T19:10:04.590Z,53666.41
2023-01-17T19:12:30.934Z,53664.34
2023-01-17T19:14:57.342Z,53664.34
2023-01-17T19:17:23.665Z,53662.28
2023-01-17T19:19:50.069Z,53678.81
2023-01-17T19:22:16.372Z,53676.75
2023-01-17T19:24:42.673Z,53666.41
2023-01-17T19:27:10.393Z,53666.41
2023-01-17T19:29:37.017Z,53658.13
2023-01-17T19:32:03.343Z,53651.94
2023-01-17T19:34:29.633Z,53666.41
2023-01-17T19:36:56.260Z,53666.41
2023-01-17T19:39:25.322Z,53662.28
2023-01-17T19:41:51.645Z,53682.94
2023-01-17T19:44:17.968Z,53699.50
2023-01-17T19:46:46.047Z,53691.22
2023-01-17T19:49:12.618Z,53711.91
2023-01-17T19:51:39.786Z,53672.59
2023-01-17T19:54:07.799Z,53689.16
2023-01-17T19:56:34.163Z,53691.22
2023-01-17T19:59:01.959Z,53689.16
2023-01-17T20:01:30.055Z,53732.56
2023-01-17T20:03:57.945Z,53658.13
2023-01-17T20:06:25.014Z,53695.34
2023-01-17T20:08:51.319Z,53703.63
2023-01-17T20:11:19.132Z,53695.34
2023-01-17T20:13:46.174Z,53658.13
2023-01-17T20:16:16.495Z,53705.69
2023-01-17T20:18:43.076Z,53666.41
2023-01-17T20:21:17.407Z,53662.28
2023-01-17T20:23:44.103Z,53674.69
2023-01-17T20:26:10.892Z,53685.00
2023-01-17T20:28:37.829Z,53680.88
2023-01-17T20:31:14.341Z,53680.88
2023-01-17T20:33:41.000Z,53672.59
2023-01-17T20:36:11.025Z,53672.59
2023-01-17T20:38:43.852Z,53689.16
2023-01-17T20:41:17.228Z,53678.81
2023-01-17T20:43:44.065Z,53660.19
2023-01-17T20:46:10.670Z,53660.19
2023-01-17T20:48:39.081Z,53678.81
2023-01-17T20:51:06.305Z,53691.22
2023-01-17T20:53:33.473Z,53676.75
2023-01-17T20:55:59.861Z,53670.53
2023-01-17T20:58:26.280Z,53666.41
2023-01-17T21:00:54.154Z,53670.53
2023-01-17T21:03:20.521Z,53695.34
2023-01-17T21:05:46.801Z,53670.53
2023-01-17T21:08:16.650Z,53695.34
2023-01-17T21:10:45.724Z,53703.63
2023-01-17T21:13:12.242Z,53685.00
2023-01-17T21:15:42.405Z,53676.75
2023-01-17T21:18:08.704Z,53654.00
2023-01-17T21:20:35.993Z,53682.94
2023-01-17T21:23:02.293Z,53666.41
2023-01-17T21:25:28.594Z,53695.34
2023-01-17T21:27:55.123Z,53635.41
2023-01-17T21:30:21.587Z,53672.59
2023-01-17T21:32:47.945Z,53705.69
2023-01-17T21:35:14.247Z,53647.81
2023-01-17T21:37:41.011Z,53691.22
2023-01-17T21:40:07.551Z,53662.28
2023-01-17T21:42:34.072Z,53685.00
2023-01-17T21:45:00.363Z,53660.19
2023-01-17T21:47:26.636Z,53672.59
2023-01-17T21:49:53.000Z,53668.47
2023-01-17T21:52:19.293Z,53658.13
2023-01-17T21:55:04.515Z,53687.09
2023-01-17T21:57:49.465Z,53654.00
2023-01-17T22:00:16.070Z,53695.34
2023-01-17T22:02:43.286Z,53680.88
2023-01-17T22:05:09.908Z,53697.41
2023-01-17T22:07:36.241Z,53678.81
2023-01-17T22:10:02.531Z,53678.81
2023-01-17T22:12:28.809Z,53678.81
2023-01-17T22:14:55.115Z,53678.81
2023-01-17T22:17:21.535Z,53691.22
2023-01-17T22:19:47.891Z,53705.69
2023-01-17T22:22:14.251Z,53693.28
2023-01-17T22:24:40.549Z,53682.94
2023-01-17T22:27:09.891Z,53668.47
2023-01-17T22:29:36.960Z,53695.34
2023-01-17T22:32:03.363Z,53682.94
2023-01-17T22:34:29.657Z,53695.34
2023-01-17T22:36:55.999Z,53678.81
2023-01-17T22:39:22.332Z,53670.53
2023-01-17T22:41:48.672Z,53660.19
2023-01-17T22:44:15.003Z,53697.41
2023-01-17T22:46:42.105Z,53695.34
2023-01-17T22:49:09.182Z,53691.22
2023-01-17T22:51:35.568Z,53668.47
2023-01-17T22:54:02.102Z,53699.50
2023-01-17T22:56:29.451Z,53695.34
2023-01-17T22:58:55.872Z,53689.16
2023-01-17T23:01:23.166Z,53716.03
2023-01-17T23:03:55.106Z,53695.34
2023-01-17T23:06:25.623Z,53707.75
2023-01-17T23:08:53.084Z,53697.41
2023-01-17T23:11:42.199Z,53701.56
2023-01-17T23:14:14.590Z,53674.69
2023-01-17T23:17:18.235Z,53678.81
2023-01-17T23:19:46.506Z,53685.00
2023-01-17T23:22:17.195Z,53670.53
2023-01-17T23:24:44.325Z,53691.22
2023-01-17T23:27:29.889Z,53713.97
2023-01-17T23:29:56.285Z,53705.69
2023-01-17T23:32:22.600Z,53668.47
2023-01-17T23:34:49.192Z,53695.34
2023-01-17T23:37:15.507Z,53693.28
2023-01-17T23:39:41.858Z,53658.13
2023-01-17T23:42:26.985Z,53691.22
2023-01-17T23:44:53.741Z,53680.88
2023-01-17T23:47:20.014Z,53662.28
2023-01-17T23:49:48.230Z,53685.00
2023-01-17T23:52:15.320Z,53676.75
2023-01-17T23:54:41.607Z,53664.34
2023-01-17T23:57:07.911Z,53678.81
2023-01-17T23:59:34.199Z,53670.53
